createdAt,value
2017-05-16T00:00:34.580Z,63.83
2017-05-16T00:01:56.427Z,64.22
2017-05-16T00:03:18.590Z,63.35
2017-05-16T00:04:41.042Z,63.35
2017-05-16T00:06:02.886Z,63.45
2017-05-16T00:07:25.050Z,64.22
2017-05-16T00:08:47.009Z,62.93
2017-05-16T00:10:08.847Z,63.13
2017-05-16T00:11:30.689Z,63.42
2017-05-16T00:12:52.840Z,63.06
2017-05-16T00:14:14.794Z,63.03
2017-05-16T00:15:36.993Z,63.45
2017-05-16T00:16:59.031Z,63.35
2017-05-16T00:18:21.509Z,63.35
2017-05-16T00:19:43.656Z,63.22
2017-05-16T00:21:05.220Z,62.93
2017-05-16T00:22:27.378Z,63.42
2017-05-16T00:23:49.209Z,64.18
2017-05-16T00:25:11.059Z,64.09
2017-05-16T00:26:33.986Z,62.36
2017-05-16T00:27:55.636Z,63.51
2017-05-16T00:29:17.901Z,63.51
2017-05-16T00:30:40.067Z,63.13
2017-05-16T00:32:01.570Z,63.32
2017-05-16T00:33:23.420Z,63.13
2017-05-16T00:34:45.259Z,63.22
2017-05-16T00:36:07.427Z,63.13
2017-05-16T00:37:29.646Z,63.13
2017-05-16T00:38:51.494Z,63.22
2017-05-16T00:40:13.326Z,63.7
2017-05-16T00:41:34.859Z,63.8
2017-05-16T00:42:57.054Z,63.32
2017-05-16T00:44:18.376Z,63.8
2017-05-16T00:45:39.574Z,63.7
2017-05-16T00:47:01.719Z,63.51
2017-05-16T00:48:24.231Z,64.18
2017-05-16T00:49:46.689Z,63.99
2017-05-16T00:51:08.970Z,63.22
2017-05-16T00:52:31.109Z,63.99
2017-05-16T00:53:53.251Z,64.18
2017-05-16T00:55:15.388Z,64.76
2017-05-16T00:56:37.219Z,64.85
2017-05-16T00:57:58.491Z,64.66
2017-05-16T00:59:21.040Z,65.52
2017-05-16T01:00:42.549Z,65.91
2017-05-16T01:02:04.766Z,65.81
2017-05-16T01:03:26.682Z,64.76
2017-05-16T01:04:48.551Z,65.05
2017-05-16T01:06:10.440Z,64.28
2017-05-16T01:07:32.917Z,64.47
2017-05-16T01:08:55.189Z,64.09
2017-05-16T01:10:17.079Z,64.95
2017-05-16T01:11:38.909Z,64.85
2017-05-16T01:13:01.121Z,63.89
2017-05-16T01:14:22.649Z,63.89
2017-05-16T01:15:44.626Z,64.28
2017-05-16T01:17:06.140Z,64.66
2017-05-16T01:18:27.975Z,64.37
2017-05-16T01:19:49.830Z,65.42
2017-05-16T01:21:12.722Z,64.47
2017-05-16T01:22:34.970Z,64.66
2017-05-16T01:23:56.830Z,64.66
2017-05-16T01:25:19.462Z,64.66
2017-05-16T01:26:41.350Z,65.33
2017-05-16T01:28:03.175Z,65.52
2017-05-16T01:29:25.080Z,65.23
2017-05-16T01:30:47.018Z,65.42
2017-05-16T01:32:08.909Z,64.76
2017-05-16T01:33:30.757Z,65.14
2017-05-16T01:34:53.001Z,65.23
2017-05-16T01:36:14.522Z,66
2017-05-16T01:37:37.116Z,65.91
2017-05-16T01:38:59.335Z,66
2017-05-16T01:40:21.671Z,65.62
2017-05-16T01:41:43.216Z,65.71
2017-05-16T01:43:05.859Z,66
2017-05-16T01:44:27.702Z,65.81
2017-05-16T01:45:49.856Z,65.91
2017-05-16T01:47:11.360Z,66.29
2017-05-16T01:48:33.759Z,66.29
2017-05-16T01:49:55.627Z,66.38
2017-05-16T01:51:17.158Z,66.48
2017-05-16T01:52:39.370Z,66.96
2017-05-16T01:54:02.189Z,66.48
2017-05-16T01:55:24.025Z,66.09
2017-05-16T01:56:45.577Z,66.29
2017-05-16T01:58:07.520Z,66.29
2017-05-16T01:59:29.417Z,66.77
2017-05-16T02:00:51.252Z,65.71
2017-05-16T02:02:13.468Z,66.29
2017-05-16T02:03:34.977Z,67.15
2017-05-16T02:04:56.913Z,66.96
2017-05-16T02:06:19.419Z,66.19
2017-05-16T02:07:41.252Z,66.19
2017-05-16T02:09:03.106Z,67.05
2017-05-16T02:10:25.616Z,67.05
2017-05-16T02:11:48.143Z,66.58
2017-05-16T02:13:09.669Z,66.96
2017-05-16T02:14:31.795Z,67.05
2017-05-16T02:15:54.028Z,67.72
2017-05-16T02:17:15.257Z,67.82
2017-05-16T02:18:37.410Z,67.25
2017-05-16T02:19:59.564Z,67.34
2017-05-16T02:21:21.832Z,67.44
2017-05-16T02:22:43.345Z,68.3
2017-05-16T02:24:05.535Z,68.11
2017-05-16T02:25:27.698Z,68.01
2017-05-16T02:26:50.196Z,67.88
2017-05-16T02:28:12.334Z,67.82
2017-05-16T02:29:34.509Z,68.49
2017-05-16T02:30:56.646Z,68.36
2017-05-16T02:32:18.767Z,68.3
2017-05-16T02:33:40.288Z,68.49
2017-05-16T02:35:01.488Z,67.72
2017-05-16T02:36:23.313Z,67.88
2017-05-16T02:37:45.828Z,68.3
2017-05-16T02:39:07.960Z,68.4
2017-05-16T02:40:30.104Z,67.91
2017-05-16T02:41:51.947Z,68.59
2017-05-16T02:43:14.138Z,69.17
2017-05-16T02:44:35.038Z,68.68
2017-05-16T02:45:56.930Z,68.78
2017-05-16T02:47:19.389Z,68.97
2017-05-16T02:48:41.220Z,69.32
2017-05-16T02:50:03.424Z,69.8
2017-05-16T02:51:25.267Z,69.8
2017-05-16T02:52:47.148Z,69.03
2017-05-16T02:54:09.335Z,68.55
2017-05-16T02:55:31.536Z,68.17
2017-05-16T02:56:53.709Z,68.94
2017-05-16T02:58:15.545Z,68.65
2017-05-16T02:59:38.059Z,68.27
2017-05-16T03:01:00.529Z,68.07
2017-05-16T03:02:22.728Z,68.46
2017-05-16T03:03:43.953Z,67.98
2017-05-16T03:05:06.078Z,67.88
2017-05-16T03:06:27.898Z,67.98
2017-05-16T03:07:50.363Z,68.46
2017-05-16T03:09:12.644Z,67.79
2017-05-16T03:10:34.527Z,67.79
2017-05-16T03:11:56.129Z,67.79
2017-05-16T03:13:18.389Z,67.98
2017-05-16T03:14:40.248Z,68.4
2017-05-16T03:16:02.206Z,68.21
2017-05-16T03:17:24.665Z,69.35
2017-05-16T03:18:46.848Z,69.8
2017-05-16T03:20:08.688Z,71.37
2017-05-16T03:21:31.008Z,70.85
2017-05-16T03:22:52.527Z,71.23
2017-05-16T03:24:14.378Z,73.24
2017-05-16T03:25:36.579Z,72.58
2017-05-16T03:26:58.769Z,72
2017-05-16T03:28:20.639Z,72.86
2017-05-16T03:29:42.520Z,73.54
2017-05-16T03:31:04.380Z,73.15
2017-05-16T03:32:26.280Z,73.54
2017-05-16T03:33:47.897Z,75.35
2017-05-16T03:35:09.723Z,75.26
2017-05-16T03:36:31.369Z,75.73
2017-05-16T03:37:53.885Z,74.97
2017-05-16T03:39:16.051Z,74.97
2017-05-16T03:40:37.947Z,74.68
2017-05-16T03:41:59.796Z,74.11
2017-05-16T03:43:21.788Z,74.11
2017-05-16T03:44:43.735Z,74.87
2017-05-16T03:46:05.253Z,74.16
2017-05-16T03:47:27.197Z,75.31
2017-05-16T03:48:48.700Z,74.3
2017-05-16T03:50:10.518Z,73.72
2017-05-16T03:51:32.657Z,73.82
2017-05-16T03:52:54.498Z,74.87
2017-05-16T03:54:17.260Z,74.87
2017-05-16T03:55:39.100Z,74.01
2017-05-16T03:57:01.578Z,74.3
2017-05-16T03:58:23.817Z,75.64
2017-05-16T03:59:46.317Z,74.11
2017-05-16T04:01:07.847Z,73.82
2017-05-16T04:02:29.687Z,74.77
2017-05-16T04:03:51.836Z,74.2
2017-05-16T04:05:14.747Z,74.93
2017-05-16T04:06:36.379Z,74.3
2017-05-16T04:07:57.884Z,74.2
2017-05-16T04:09:19.715Z,74.55
2017-05-16T04:10:42.196Z,74.01
2017-05-16T04:12:04.076Z,75.12
2017-05-16T04:13:26.318Z,74.11
2017-05-16T04:14:48.848Z,74.2
2017-05-16T04:16:10.838Z,74.11
2017-05-16T04:17:32.677Z,74.11
2017-05-16T04:18:53.575Z,75.35
2017-05-16T04:20:14.779Z,74.49
2017-05-16T04:21:36.966Z,73.63
2017-05-16T04:22:59.118Z,74.11
2017-05-16T04:24:20.956Z,73.44
2017-05-16T04:25:42.738Z,73.63
2017-05-16T04:27:04.949Z,74.11
2017-05-16T04:28:26.467Z,74.4
2017-05-16T04:29:47.675Z,74.68
2017-05-16T04:31:09.208Z,74.3
2017-05-16T04:32:31.547Z,72.48
2017-05-16T04:33:53.070Z,72.77
2017-05-16T04:35:14.591Z,74.2
2017-05-16T04:36:36.425Z,74.24
2017-05-16T04:38:00.058Z,74.24
2017-05-16T04:39:22.218Z,73.38
2017-05-16T04:40:44.499Z,73.66
2017-05-16T04:42:06.652Z,75.01
2017-05-16T04:43:28.808Z,75.01
2017-05-16T04:44:50.658Z,75.01
2017-05-16T04:46:12.806Z,76.54
2017-05-16T04:47:34.326Z,76.73
2017-05-16T04:48:56.148Z,74.72
2017-05-16T04:50:17.672Z,74.05
2017-05-16T04:51:39.586Z,74.33
2017-05-16T04:53:01.435Z,74.43
2017-05-16T04:54:24.317Z,74.05
2017-05-16T04:55:46.827Z,74.15
2017-05-16T04:57:09.038Z,74.91
2017-05-16T04:58:31.580Z,75.68
2017-05-16T04:59:53.717Z,73.9
2017-05-16T05:01:14.971Z,74.57
2017-05-16T05:02:36.501Z,75.23
2017-05-16T05:03:58.356Z,75.52
2017-05-16T05:05:20.485Z,74.76
2017-05-16T05:06:41.673Z,75.71
2017-05-16T05:08:03.521Z,75.14
2017-05-16T05:09:25.357Z,74.76
2017-05-16T05:10:47.229Z,74.18
2017-05-16T05:12:09.174Z,74.66
2017-05-16T05:13:31.318Z,77.06
2017-05-16T05:14:53.166Z,77.82
2017-05-16T05:16:15.353Z,76.48
2017-05-16T05:17:37.199Z,76.67
2017-05-16T05:18:59.430Z,76.19
2017-05-16T05:20:21.580Z,73.8
2017-05-16T05:21:43.814Z,73.32
2017-05-16T05:23:05.337Z,74.18
2017-05-16T05:24:26.859Z,73.61
2017-05-16T05:25:48.709Z,74.18
2017-05-16T05:27:10.945Z,74.66
2017-05-16T05:28:32.887Z,75.58
2017-05-16T05:29:54.876Z,75.96
2017-05-16T05:31:17.129Z,76.25
2017-05-16T05:32:39.254Z,76.57
2017-05-16T05:34:00.535Z,76.48
2017-05-16T05:35:22.707Z,76.54
2017-05-16T05:36:44.867Z,76.86
2017-05-16T05:38:06.682Z,77.15
2017-05-16T05:39:28.944Z,77.82
2017-05-16T05:40:50.919Z,78.07
2017-05-16T05:42:13.154Z,78.93
2017-05-16T05:43:35.029Z,78.55
2017-05-16T05:44:57.508Z,78.93
2017-05-16T05:46:19.668Z,79.03
2017-05-16T05:47:41.849Z,78.36
2017-05-16T05:49:04.048Z,79.13
2017-05-16T05:50:26.197Z,78.74
2017-05-16T05:51:48.381Z,78.88
2017-05-16T05:53:10.218Z,79.36
2017-05-16T05:54:32.498Z,78.88
2017-05-16T05:55:53.389Z,79.45
2017-05-16T05:57:15.677Z,79.16
2017-05-16T05:58:37.831Z,80.22
2017-05-16T06:00:00.226Z,79.74
2017-05-16T06:01:22.386Z,80.79
2017-05-16T06:02:44.236Z,80.99
2017-05-16T06:04:06.075Z,81.75
2017-05-16T06:05:28.559Z,82.32
2017-05-16T06:06:50.713Z,81.56
2017-05-16T06:08:12.540Z,82.04
2017-05-16T06:09:34.379Z,82.62
2017-05-16T06:10:56.518Z,82.9
2017-05-16T06:12:18.719Z,82.52
2017-05-16T06:13:40.269Z,83.05
2017-05-16T06:15:01.800Z,82.23
2017-05-16T06:16:23.996Z,82.38
2017-05-16T06:17:45.528Z,83.15
2017-05-16T06:19:07.058Z,82.67
2017-05-16T06:20:29.028Z,83.34
2017-05-16T06:21:50.840Z,82.57
2017-05-16T06:23:12.738Z,82.96
2017-05-16T06:24:34.273Z,82.86
2017-05-16T06:25:56.109Z,82.29
2017-05-16T06:27:18.297Z,81.95
2017-05-16T06:28:40.180Z,81.56
2017-05-16T06:30:01.883Z,80.79
2017-05-16T06:31:23.729Z,80.6
2017-05-16T06:32:45.921Z,80.12
2017-05-16T06:34:08.107Z,79.64
2017-05-16T06:35:29.970Z,78.82
2017-05-16T06:36:52.131Z,78.63
2017-05-16T06:38:14.312Z,78.34
2017-05-16T06:39:35.839Z,77
2017-05-16T06:40:57.669Z,76.9
2017-05-16T06:42:19.299Z,77
2017-05-16T06:43:41.472Z,77.19
2017-05-16T06:45:03.617Z,77
2017-05-16T06:46:26.131Z,76.52
2017-05-16T06:47:47.646Z,77.86
2017-05-16T06:49:10.417Z,78.63
2017-05-16T06:50:31.723Z,77.9
2017-05-16T06:51:53.614Z,78
2017-05-16T06:53:15.502Z,77.13
2017-05-16T06:54:37.064Z,76.27
2017-05-16T06:55:58.598Z,74.96
2017-05-16T06:57:20.771Z,75.15
2017-05-16T06:58:42.593Z,74.01
2017-05-16T07:00:05.084Z,73.72
2017-05-16T07:01:26.948Z,73.33
2017-05-16T07:02:49.427Z,73.04
2017-05-16T07:04:11.009Z,73.14
2017-05-16T07:05:34.000Z,71.41
2017-05-16T07:06:56.168Z,71.89
2017-05-16T07:08:18.049Z,71.03
2017-05-16T07:09:39.887Z,71.22
2017-05-16T07:11:01.759Z,70.93
2017-05-16T07:12:23.288Z,71.7
2017-05-16T07:13:44.829Z,71.61
2017-05-16T07:15:06.709Z,70.93
2017-05-16T07:16:28.893Z,71.7
2017-05-16T07:17:51.148Z,71.41
2017-05-16T07:19:13.678Z,71.83
2017-05-16T07:20:35.835Z,70.01
2017-05-16T07:21:58.373Z,69.91
2017-05-16T07:23:19.898Z,70.62
2017-05-16T07:24:42.090Z,70.52
2017-05-16T07:26:03.917Z,69.95
2017-05-16T07:27:26.727Z,69.85
2017-05-16T07:28:48.900Z,69.18
2017-05-16T07:30:10.437Z,69.18
2017-05-16T07:31:31.965Z,69.37
2017-05-16T07:32:53.499Z,68.85
2017-05-16T07:34:15.065Z,70.87
2017-05-16T07:35:37.222Z,71.25
2017-05-16T07:36:58.750Z,71.16
2017-05-16T07:38:21.295Z,72.12
2017-05-16T07:39:43.546Z,72.41
2017-05-16T07:41:05.708Z,72.69
2017-05-16T07:42:26.962Z,72.99
2017-05-16T07:43:49.437Z,73.85
2017-05-16T07:45:11.310Z,72.75
2017-05-16T07:46:33.786Z,73.04
2017-05-16T07:47:55.628Z,75.35
2017-05-16T07:49:17.757Z,73.56
2017-05-16T07:50:39.594Z,74.29
2017-05-16T07:52:01.753Z,75.45
2017-05-16T07:53:23.993Z,75.25
2017-05-16T07:54:46.558Z,76.02
2017-05-16T07:56:08.397Z,76.12
2017-05-16T07:57:30.239Z,76.21
2017-05-16T07:58:52.808Z,77.84
2017-05-16T08:00:14.988Z,78.09
2017-05-16T08:01:37.240Z,80.01
2017-05-16T08:02:59.840Z,79.72
2017-05-16T08:04:22.451Z,80.4
2017-05-16T08:05:45.226Z,81.26
2017-05-16T08:07:06.743Z,80.68
2017-05-16T08:08:28.269Z,82.56
2017-05-16T08:09:49.497Z,81.45
2017-05-16T08:11:11.898Z,81.74
2017-05-16T08:12:33.437Z,81.35
2017-05-16T08:13:55.627Z,82.21
2017-05-16T08:15:17.628Z,83.08
2017-05-16T08:16:39.569Z,82.51
2017-05-16T08:18:01.160Z,82.79
2017-05-16T08:19:23.689Z,82.21
2017-05-16T08:20:45.658Z,81.64
2017-05-16T08:22:07.846Z,81.84
2017-05-16T08:23:29.556Z,82.79
2017-05-16T08:24:51.769Z,81.93
2017-05-16T08:26:13.774Z,81.64
2017-05-16T08:27:35.645Z,81.35
2017-05-16T08:28:57.487Z,80.49
2017-05-16T08:30:19.640Z,81.35
2017-05-16T08:31:41.847Z,80.3
2017-05-16T08:33:04.418Z,80.82
2017-05-16T08:34:26.250Z,80.53
2017-05-16T08:35:48.399Z,79.67
2017-05-16T08:37:10.561Z,78.8
2017-05-16T08:38:32.339Z,78.84
2017-05-16T08:39:54.498Z,77.98
2017-05-16T08:41:16.329Z,78.55
2017-05-16T08:42:38.163Z,77.98
2017-05-16T08:44:00.357Z,78.08
2017-05-16T08:45:22.223Z,77.21
2017-05-16T08:46:43.765Z,76.96
2017-05-16T08:48:06.070Z,76.19
2017-05-16T08:49:27.908Z,75.75
2017-05-16T08:50:50.085Z,75.07
2017-05-16T08:52:12.269Z,74.44
2017-05-16T08:53:34.433Z,73.09
2017-05-16T08:54:56.354Z,72.74
2017-05-16T08:56:18.239Z,71.59
2017-05-16T08:57:39.833Z,72.13
2017-05-16T08:59:01.357Z,73.28
2017-05-16T09:00:23.510Z,71.88
2017-05-16T09:01:45.036Z,72.26
2017-05-16T09:03:06.547Z,72.26
2017-05-16T09:04:28.708Z,71.69
2017-05-16T09:05:50.730Z,72.45
2017-05-16T09:07:12.278Z,72.71
2017-05-16T09:08:33.843Z,73
2017-05-16T09:09:55.469Z,74.15
2017-05-16T09:11:17.928Z,73.77
2017-05-16T09:12:40.088Z,74.92
2017-05-16T09:14:02.314Z,74.25
2017-05-16T09:15:23.930Z,73.13
2017-05-16T09:16:46.796Z,72.36
2017-05-16T09:18:08.638Z,72.94
2017-05-16T09:19:30.948Z,72.55
2017-05-16T09:20:53.534Z,75.02
2017-05-16T09:22:15.118Z,73.28
2017-05-16T09:23:36.655Z,75.02
2017-05-16T09:24:58.910Z,74.44
2017-05-16T09:26:21.078Z,73.86
2017-05-16T09:27:43.575Z,73.38
2017-05-16T09:29:06.048Z,73
2017-05-16T09:30:27.318Z,71.55
2017-05-16T09:31:49.211Z,72.23
2017-05-16T09:33:11.735Z,71.46
2017-05-16T09:34:33.209Z,70.4
2017-05-16T09:35:54.739Z,70.98
2017-05-16T09:37:17.317Z,70.53
2017-05-16T09:38:39.585Z,71.97
2017-05-16T09:40:01.208Z,72.55
2017-05-16T09:41:23.766Z,70.43
2017-05-16T09:42:45.291Z,69.6
2017-05-16T09:44:07.753Z,67.71
2017-05-16T09:45:30.099Z,66.75
2017-05-16T09:46:52.315Z,67.33
2017-05-16T09:48:14.150Z,66.07
2017-05-16T09:49:36.607Z,66.75
2017-05-16T09:50:58.453Z,66.17
2017-05-16T09:52:20.305Z,65.4
2017-05-16T09:53:41.575Z,65.5
2017-05-16T09:55:04.129Z,67.1
2017-05-16T09:56:26.298Z,66.52
2017-05-16T09:57:48.469Z,66.55
2017-05-16T09:59:10.113Z,66.75
2017-05-16T10:00:32.890Z,66.85
2017-05-16T10:01:55.449Z,66.39
2017-05-16T10:03:17.343Z,65.91
2017-05-16T10:04:38.899Z,64.66
2017-05-16T10:06:00.714Z,66.46
2017-05-16T10:07:22.554Z,65.98
2017-05-16T10:08:44.386Z,66.94
2017-05-16T10:10:06.229Z,65.88
2017-05-16T10:11:28.767Z,66.36
2017-05-16T10:12:50.648Z,65.63
2017-05-16T10:14:12.176Z,65.24
2017-05-16T10:15:34.406Z,65.91
2017-05-16T10:16:56.546Z,65.43
2017-05-16T10:18:18.389Z,66.39
2017-05-16T10:19:40.635Z,65.33
2017-05-16T10:21:02.582Z,65.14
2017-05-16T10:22:24.776Z,65.14
2017-05-16T10:23:46.655Z,65.14
2017-05-16T10:25:08.811Z,65.2
2017-05-16T10:26:31.297Z,65.98
2017-05-16T10:27:54.137Z,66.55
2017-05-16T10:29:15.731Z,66.24
2017-05-16T10:30:37.977Z,66.81
2017-05-16T10:31:59.877Z,66.17
2017-05-16T10:33:22.695Z,66.24
2017-05-16T10:34:44.567Z,66.55
2017-05-16T10:37:26.900Z,65.78
2017-05-16T10:38:49.136Z,66.55
2017-05-16T10:40:10.381Z,66.55
2017-05-16T10:41:32.576Z,66.36
2017-05-16T10:42:54.095Z,65.78
2017-05-16T10:44:16.337Z,65.88
2017-05-16T10:45:38.812Z,66.46
2017-05-16T10:47:01.006Z,65.4
2017-05-16T10:48:22.878Z,65.72
2017-05-16T10:49:45.427Z,64.86
2017-05-16T10:51:07.588Z,63.5
2017-05-16T10:52:29.430Z,63.54
2017-05-16T10:53:51.985Z,63.73
2017-05-16T10:55:14.497Z,62.28
2017-05-16T10:56:36.461Z,61.83
2017-05-16T10:57:58.329Z,62.89
2017-05-16T10:59:20.176Z,62.79
2017-05-16T11:00:42.037Z,61.64
2017-05-16T11:02:03.907Z,63.73
2017-05-16T11:03:25.465Z,63.54
2017-05-16T11:04:47.725Z,63.73
2017-05-16T11:06:09.936Z,63.98
2017-05-16T11:07:32.257Z,63.92
2017-05-16T11:08:54.148Z,63.06
2017-05-16T11:10:16.329Z,62.48
2017-05-16T11:11:40.404Z,63.24
2017-05-16T11:13:02.267Z,62.86
2017-05-16T11:14:23.823Z,64.08
2017-05-16T11:15:46.048Z,63.31
2017-05-16T11:17:10.196Z,63.15
2017-05-16T11:18:32.443Z,62.86
2017-05-16T11:19:54.372Z,63.34
2017-05-16T11:21:16.543Z,62.38
2017-05-16T11:22:38.422Z,62.86
2017-05-16T11:23:59.960Z,61.9
2017-05-16T11:25:21.806Z,61.54
2017-05-16T11:26:43.465Z,62.02
2017-05-16T11:28:06.807Z,61.16
2017-05-16T11:29:28.997Z,61.06
2017-05-16T11:30:50.828Z,61.16
2017-05-16T11:32:13.337Z,59.93
2017-05-16T11:33:35.845Z,59.35
2017-05-16T11:34:57.380Z,58.87
2017-05-16T11:36:18.884Z,58.77
2017-05-16T11:37:41.045Z,58.1
2017-05-16T11:39:03.526Z,57.93
2017-05-16T11:40:25.716Z,58
2017-05-16T11:41:47.647Z,57.74
2017-05-16T11:43:09.824Z,58.39
2017-05-16T11:44:32.087Z,59.06
2017-05-16T11:45:54.243Z,59.45
2017-05-16T11:47:15.547Z,59.9
2017-05-16T11:48:37.384Z,60.38
2017-05-16T11:50:00.177Z,60.1
2017-05-16T11:51:22.059Z,60.77
2017-05-16T11:52:44.226Z,61.8
2017-05-16T11:54:06.150Z,61.8
2017-05-16T11:55:28.947Z,61.61
2017-05-16T11:56:51.589Z,63.24
2017-05-16T11:58:14.139Z,63.06
2017-05-16T11:59:36.007Z,62.76
2017-05-16T12:00:58.757Z,62.48
2017-05-16T12:02:20.597Z,62.28
2017-05-16T12:03:42.768Z,61.61
2017-05-16T12:05:04.619Z,61.64
2017-05-16T12:06:27.088Z,61.64
2017-05-16T12:07:49.613Z,61.06
2017-05-16T12:09:11.803Z,60.31
2017-05-16T12:10:33.667Z,60.13
2017-05-16T12:11:55.806Z,60.41
2017-05-16T12:13:18.039Z,59.86
2017-05-16T12:14:39.916Z,59.09
2017-05-16T12:16:02.417Z,59.09
2017-05-16T12:17:24.650Z,58.45
2017-05-16T12:18:46.839Z,57.57
2017-05-16T12:20:09.007Z,56.93
2017-05-16T12:21:31.173Z,57.7
2017-05-16T12:22:53.430Z,56.93
2017-05-16T12:24:15.976Z,57.31
2017-05-16T12:25:37.238Z,55.79
2017-05-16T12:26:59.828Z,56.67
2017-05-16T12:28:22.614Z,56.28
2017-05-16T12:29:45.129Z,56.83
2017-05-16T12:31:07.612Z,56.93
2017-05-16T12:32:29.588Z,58.21
2017-05-16T12:33:52.116Z,55.82
2017-05-16T12:35:13.948Z,55.99
2017-05-16T12:36:35.488Z,55.51
2017-05-16T12:37:57.087Z,54.63
2017-05-16T12:39:19.329Z,54.73
2017-05-16T12:40:40.854Z,55.29
2017-05-16T12:42:02.717Z,55.31
2017-05-16T12:43:24.874Z,54.44
2017-05-16T12:44:47.068Z,53.38
2017-05-16T12:46:09.596Z,53.77
2017-05-16T12:47:31.464Z,53.41
2017-05-16T12:48:53.320Z,53.21
2017-05-16T12:50:15.893Z,53.38
2017-05-16T12:51:37.722Z,52.99
2017-05-16T12:52:59.962Z,53.21
2017-05-16T12:54:22.150Z,53.47
2017-05-16T12:55:44.975Z,53.28
2017-05-16T12:57:06.820Z,52.63
2017-05-16T12:58:28.990Z,52.63
2017-05-16T12:59:50.838Z,52.44
2017-05-16T13:01:13.319Z,53.21
2017-05-16T13:02:35.803Z,52.92
2017-05-16T13:03:57.327Z,53.11
2017-05-16T13:05:18.938Z,52.56
2017-05-16T13:06:41.499Z,52.14
2017-05-16T13:08:03.377Z,54.15
2017-05-16T13:09:25.940Z,54.22
2017-05-16T13:10:47.277Z,54.44
2017-05-16T13:12:10.057Z,53.96
2017-05-16T13:13:32.258Z,54.8
2017-05-16T13:14:54.745Z,55.26
2017-05-16T13:16:16.898Z,55.45
2017-05-16T13:17:39.098Z,55.65
2017-05-16T13:19:01.598Z,57.06
2017-05-16T13:20:23.488Z,55.93
2017-05-16T13:21:45.651Z,55.74
2017-05-16T13:23:08.638Z,56.13
2017-05-16T13:24:30.498Z,56.03
2017-05-16T13:25:52.664Z,55.83
2017-05-16T13:27:14.978Z,55.19
2017-05-16T13:28:36.206Z,55.65
2017-05-16T13:29:58.757Z,55.93
2017-05-16T13:31:20.940Z,56.32
2017-05-16T13:32:43.188Z,56.35
2017-05-16T13:34:05.743Z,55.74
2017-05-16T13:35:27.948Z,57.67
2017-05-16T13:36:49.890Z,57.77
2017-05-16T13:38:12.441Z,58.06
2017-05-16T13:39:35.207Z,56.8
2017-05-16T13:40:57.057Z,57.19
2017-05-16T13:42:19.294Z,56.9
2017-05-16T13:43:41.547Z,57.77
2017-05-16T13:45:03.730Z,58.93
2017-05-16T13:46:25.578Z,57.96
2017-05-16T13:47:47.426Z,57.38
2017-05-16T13:49:08.989Z,56.93
2017-05-16T13:50:31.187Z,57.03
2017-05-16T13:51:53.470Z,57.38
2017-05-16T13:53:15.668Z,57.87
2017-05-16T13:54:37.640Z,57.67
2017-05-16T13:56:00.130Z,59.41
2017-05-16T13:57:21.826Z,58.8
2017-05-16T13:58:43.701Z,58.83
2017-05-16T14:00:06.188Z,59.38
2017-05-16T14:01:28.348Z,59.38
2017-05-16T14:02:50.543Z,58.51
2017-05-16T14:04:12.066Z,58.9
2017-05-16T14:05:34.220Z,58.42
2017-05-16T14:06:56.716Z,59.41
2017-05-16T14:08:18.557Z,59.51
2017-05-16T14:09:40.745Z,59.41
2017-05-16T14:11:02.264Z,58.93
2017-05-16T14:12:24.796Z,59.02
2017-05-16T14:13:46.968Z,57.7
2017-05-16T14:15:09.538Z,58.09
2017-05-16T14:16:31.467Z,57.79
2017-05-16T14:17:54.050Z,57.7
2017-05-16T14:19:15.608Z,58.76
2017-05-16T14:20:37.514Z,57.89
2017-05-16T14:22:00.086Z,58.02
2017-05-16T14:23:22.239Z,58.31
2017-05-16T14:24:44.410Z,58.67
2017-05-16T14:26:05.949Z,58.57
2017-05-16T14:27:28.147Z,60.09
2017-05-16T14:28:50.937Z,60.28
2017-05-16T14:30:13.121Z,59.8
2017-05-16T14:31:34.642Z,59.7
2017-05-16T14:32:57.123Z,59.89
2017-05-16T14:34:20.001Z,59.99
2017-05-16T14:35:42.175Z,60.57
2017-05-16T14:37:04.538Z,60.47
2017-05-16T14:38:26.687Z,60.47
2017-05-16T14:39:49.465Z,60.67
2017-05-16T14:41:11.631Z,60.57
2017-05-16T14:42:33.840Z,60.38
2017-05-16T14:43:56.328Z,61.05
2017-05-16T14:45:19.116Z,61.34
2017-05-16T14:46:41.618Z,61.7
2017-05-16T14:48:04.119Z,61.7
2017-05-16T14:49:26.310Z,61.63
2017-05-16T14:50:48.828Z,61.63
2017-05-16T14:52:10.683Z,62.08
2017-05-16T14:53:32.246Z,62.98
2017-05-16T14:54:54.769Z,62.76
2017-05-16T14:56:16.925Z,62.18
2017-05-16T14:57:38.510Z,62.86
2017-05-16T14:59:00.745Z,62.76
2017-05-16T15:00:23.368Z,63.63
2017-05-16T15:01:45.971Z,63.92
2017-05-16T15:03:07.868Z,63.92
2017-05-16T15:04:30.034Z,64.98
2017-05-16T15:05:52.329Z,65.17
2017-05-16T15:07:14.899Z,64.76
2017-05-16T15:08:37.398Z,65.91
2017-05-16T15:09:59.884Z,66.05
2017-05-16T15:11:21.403Z,65.95
2017-05-16T15:12:43.622Z,65.66
2017-05-16T15:14:05.924Z,64.79
2017-05-16T15:15:27.159Z,64.43
2017-05-16T15:16:49.127Z,64.43
2017-05-16T15:18:11.293Z,64.43
2017-05-16T15:19:33.459Z,64.34
2017-05-16T15:20:55.948Z,64.43
2017-05-16T15:22:17.797Z,63.6
2017-05-16T15:23:39.957Z,63.69
2017-05-16T15:25:02.453Z,61.98
2017-05-16T15:26:24.690Z,63.05
2017-05-16T15:27:46.850Z,61.79
2017-05-16T15:29:09.016Z,61.89
2017-05-16T15:30:30.945Z,61.89
2017-05-16T15:31:53.117Z,61.3
2017-05-16T15:33:15.620Z,60.44
2017-05-16T15:34:38.473Z,60.17
2017-05-16T15:36:00.029Z,59.89
2017-05-16T15:37:22.528Z,59.89
2017-05-16T15:38:44.697Z,59.89
2017-05-16T15:40:07.216Z,60.66
2017-05-16T15:41:29.690Z,60.44
2017-05-16T15:42:51.629Z,60.44
2017-05-16T15:44:13.817Z,60.63
2017-05-16T15:45:35.672Z,60.63
2017-05-16T15:46:58.161Z,61.21
2017-05-16T15:48:20.655Z,61.02
2017-05-16T15:49:42.809Z,61.4
2017-05-16T15:51:05.360Z,60.92
2017-05-16T15:52:27.969Z,61.4
2017-05-16T15:53:50.223Z,60.24
2017-05-16T15:55:12.075Z,59.89
2017-05-16T15:56:35.037Z,60.57
2017-05-16T15:57:57.547Z,60.95
2017-05-16T15:59:19.734Z,61.08
2017-05-16T16:00:41.600Z,59.53
2017-05-16T16:02:04.388Z,59.23
2017-05-16T16:03:26.254Z,59.82
2017-05-16T16:04:48.970Z,60.01
2017-05-16T16:06:10.891Z,60.21
2017-05-16T16:07:33.379Z,59.72
2017-05-16T16:08:55.948Z,60.17
2017-05-16T16:10:17.867Z,60.95
2017-05-16T16:11:40.025Z,59.89
2017-05-16T16:13:02.249Z,60.95
2017-05-16T16:14:24.130Z,60.98
2017-05-16T16:15:46.361Z,60.69
2017-05-16T16:17:08.538Z,61.18
2017-05-16T16:18:31.001Z,60.37
2017-05-16T16:19:53.602Z,61.43
2017-05-16T16:21:16.438Z,62.21
2017-05-16T16:22:39.989Z,61.92
2017-05-16T16:24:02.482Z,61.63
2017-05-16T16:25:24.991Z,61.43
2017-05-16T16:26:47.173Z,61.43
2017-05-16T16:28:09.040Z,62.11
2017-05-16T16:29:31.618Z,61.05
2017-05-16T16:30:53.815Z,61.63
2017-05-16T16:32:15.760Z,61.53
2017-05-16T16:33:38.259Z,61.69
2017-05-16T16:35:01.068Z,62.56
2017-05-16T16:36:23.269Z,62.66
2017-05-16T16:37:45.157Z,62.69
2017-05-16T16:39:07.130Z,62.56
2017-05-16T16:40:29.336Z,63.24
2017-05-16T16:41:51.904Z,62.85
2017-05-16T16:43:14.400Z,62.98
2017-05-16T16:44:37.057Z,63.08
2017-05-16T16:45:59.960Z,63.73
2017-05-16T16:47:22.483Z,63.53
2017-05-16T16:48:45.007Z,63.53
2017-05-16T16:50:07.220Z,63.53
2017-05-16T16:51:29.997Z,63.92
2017-05-16T16:52:52.487Z,63.92
2017-05-16T16:54:14.422Z,64.79
2017-05-16T16:55:36.648Z,65.05
2017-05-16T16:56:59.220Z,64.56
2017-05-16T16:58:21.896Z,65.08
2017-05-16T16:59:44.121Z,64.69
2017-05-16T17:01:06.366Z,65.72
2017-05-16T17:02:28.603Z,65.92
2017-05-16T17:03:50.509Z,65.92
2017-05-16T17:05:12.424Z,66.3
2017-05-16T17:06:34.409Z,66.3
2017-05-16T17:07:56.932Z,66.2
2017-05-16T17:09:21.029Z,66.59
2017-05-16T17:10:42.598Z,66.78
2017-05-16T17:12:05.108Z,66.01
2017-05-16T17:13:27.678Z,65.82
2017-05-16T17:14:49.235Z,65.63
2017-05-16T17:16:11.101Z,65.24
2017-05-16T17:17:33.309Z,65.82
2017-05-16T17:18:55.575Z,65.14
2017-05-16T17:20:17.838Z,65.82
2017-05-16T17:21:40.169Z,65.14
2017-05-16T17:23:02.111Z,64.56
2017-05-16T17:24:24.885Z,64.85
2017-05-16T17:25:47.443Z,64.76
2017-05-16T17:27:09.443Z,64.76
2017-05-16T17:28:31.015Z,65.08
2017-05-16T17:29:53.925Z,64.95
2017-05-16T17:31:16.247Z,64.47
2017-05-16T17:32:38.851Z,65.24
2017-05-16T17:34:00.425Z,65.82
2017-05-16T17:35:23.221Z,65.24
2017-05-16T17:36:45.469Z,65.72
2017-05-16T17:38:07.980Z,65.34
2017-05-16T17:39:30.515Z,65.72
2017-05-16T17:40:52.827Z,65.92
2017-05-16T17:42:15.369Z,66.17